Time;durP1;ratioP1;P1;durP2;ratioP2;P2;SDS_P1;SDS_P2;PMS_P1;PMS_P2;Temp;Humidity;BMP_temperature;BMP_pressure;BME280_temperature;BME280_humidity;BME280_pressure;Samples;Min_cycle;Max_cycle;Signal;HPM_P1;HPM_P2
2022/12/23 00:00:06;;;;;;;32.03;24.03;;;;;;;;;;5069006;28;20188;-78
2022/12/23 00:02:32;;;;;;;31.20;24.23;;;;;;;;;;5067732;28;20174;-78
2022/12/23 00:04:58;;;;;;;36.03;26.03;;;;;;;;;;5053913;28;20746;-79
2022/12/23 00:07:24;;;;;;;33.20;26.97;;;;;;;;;;5062899;28;20236;-81
2022/12/23 00:09:50;;;;;;;37.17;27.63;;;;;;;;;;5057803;28;20185;-78
2022/12/23 00:15:07;;;;;;;38.20;27.97;;;;;;;;;;5052178;28;20180;-79
2022/12/23 00:17:34;;;;;;;39.00;28.63;;;;;;;;;;5066876;28;20181;-77
2022/12/23 00:20:00;;;;;;;37.17;28.27;;;;;;;;;;5069766;28;20201;-82
2022/12/23 00:25:11;;;;;;;41.03;28.10;;;;;;;;;;5062454;28;20200;-82
2022/12/23 00:27:38;;;;;;;44.20;31.87;;;;;;;;;;5067158;28;20235;-83
2022/12/23 00:30:05;;;;;;;44.30;30.03;;;;;;;;;;5068772;28;20193;-80
2022/12/23 00:32:31;;;;;;;49.07;31.50;;;;;;;;;;5070852;28;20622;-79
2022/12/23 00:34:57;;;;;;;49.63;33.50;;;;;;;;;;5069995;28;20223;-83
2022/12/23 00:37:23;;;;;;;50.43;32.60;;;;;;;;;;5069314;28;20234;-81
2022/12/23 00:42:52;;;;;;;52.47;33.67;;;;;;;;;;5075132;28;20196;-78
2022/12/23 00:45:18;;;;;;;56.40;34.97;;;;;;;;;;5083694;28;20210;-80
2022/12/23 00:50:30;;;;;;;54.03;34.77;;;;;;;;;;5059961;28;20190;-80
2022/12/23 00:52:56;;;;;;;56.60;36.07;;;;;;;;;;5066073;28;20272;-80
2022/12/23 00:55:23;;;;;;;63.20;37.47;;;;;;;;;;5066143;28;20222;-80
2022/12/23 00:57:49;;;;;;;61.27;36.17;;;;;;;;;;5061907;28;20217;-81
2022/12/23 01:00:15;;;;;;;65.47;38.13;;;;;;;;;;5073460;28;20650;-80
2022/12/23 01:05:35;;;;;;;66.53;37.43;;;;;;;;;;5074270;28;20188;-79
2022/12/23 01:08:01;;;;;;;67.47;37.17;;;;;;;;;;5073667;28;20293;-82
2022/12/23 01:10:27;;;;;;;67.33;38.10;;;;;;;;;;5061230;28;20208;-82
2022/12/23 01:12:53;;;;;;;68.40;38.63;;;;;;;;;;5059400;28;20266;-80
2022/12/23 01:15:19;;;;;;;67.07;37.87;;;;;;;;;;5073248;28;20646;-81
2022/12/23 01:17:45;;;;;;;72.70;40.63;;;;;;;;;;5073388;28;20173;-80
2022/12/23 01:20:11;;;;;;;72.00;39.07;;;;;;;;;;5060729;28;20177;-83
2022/12/23 01:22:37;;;;;;;81.93;41.37;;;;;;;;;;5064115;28;20265;-83
2022/12/23 01:25:04;;;;;;;78.00;40.67;;;;;;;;;;5062131;28;20221;-80
2022/12/23 01:27:30;;;;;;;67.67;38.17;;;;;;;;;;5070458;28;20211;-80
2022/12/23 01:29:56;;;;;;;72.73;39.80;;;;;;;;;;5054323;28;20260;-81
2022/12/23 01:32:22;;;;;;;72.77;39.27;;;;;;;;;;5073887;28;20208;-79
2022/12/23 01:34:47;;;;;;;78.63;39.40;;;;;;;;;;5063505;28;20590;-80
2022/12/23 01:37:13;;;;;;;79.57;40.73;;;;;;;;;;5058855;28;20228;-80
2022/12/23 01:39:39;;;;;;;77.73;40.30;;;;;;;;;;5057002;28;20664;-82
2022/12/23 01:44:56;;;;;;;79.03;40.53;;;;;;;;;;5073114;28;20239;-79
2022/12/23 01:47:42;;;;;;;76.63;38.90;;;;;;;;;;5052089;28;20209;-80
2022/12/23 01:50:16;;;;;;;84.90;42.43;;;;;;;;;;5068503;28;20602;-80
2022/12/23 01:53:06;;;;;;;74.73;39.57;;;;;;;;;;5063855;28;20212;-79
2022/12/23 01:55:35;;;;;;;78.13;39.90;;;;;;;;;;5062037;28;20194;-80
2022/12/23 01:58:13;;;;;;;78.57;41.17;;;;;;;;;;5056915;28;20606;-79
2022/12/23 02:03:42;;;;;;;78.70;40.07;;;;;;;;;;5056725;28;20314;-80
2022/12/23 02:11:42;;;;;;;81.67;39.43;;;;;;;;;;5054319;28;20188;-80
2022/12/23 02:17:09;;;;;;;87.93;39.17;;;;;;;;;;5058691;28;20192;-79
2022/12/23 02:19:54;;;;;;;62.23;35.03;;;;;;;;;;5058750;28;20273;-82
2022/12/23 02:22:20;;;;;;;72.23;37.73;;;;;;;;;;5060635;28;20216;-80
2022/12/23 02:25:02;;;;;;;79.10;37.63;;;;;;;;;;5060262;28;20657;-80
2022/12/23 02:27:31;;;;;;;66.90;36.23;;;;;;;;;;5057371;28;20212;-78
2022/12/23 02:30:16;;;;;;;63.73;35.07;;;;;;;;;;5070304;28;20177;-82
2022/12/23 02:32:45;;;;;;;72.60;37.20;;;;;;;;;;5064741;28;20178;-81
2022/12/23 02:35:21;;;;;;;68.33;35.20;;;;;;;;;;5054692;28;20174;-81
2022/12/23 02:37:50;;;;;;;56.13;34.07;;;;;;;;;;5069483;28;20225;-80
2022/12/23 02:40:16;;;;;;;64.97;37.37;;;;;;;;;;5071690;28;20185;-83
2022/12/23 02:42:42;;;;;;;59.43;35.23;;;;;;;;;;5068060;28;20179;-79
2022/12/23 02:45:08;;;;;;;67.63;36.67;;;;;;;;;;5068901;28;20188;-78
2022/12/23 02:47:42;;;;;;;65.87;36.77;;;;;;;;;;5051163;28;20225;-78
2022/12/23 02:50:15;;;;;;;65.43;35.73;;;;;;;;;;5057476;28;20272;-79
2022/12/23 02:52:42;;;;;;;76.47;37.60;;;;;;;;;;5065990;28;20188;-78
2022/12/23 02:55:09;;;;;;;61.57;35.33;;;;;;;;;;5069285;28;20200;-78
2022/12/23 02:57:36;;;;;;;74.70;38.20;;;;;;;;;;5068314;28;20261;-78
2022/12/23 03:00:03;;;;;;;77.27;38.90;;;;;;;;;;5067883;28;20534;-78
2022/12/23 03:02:34;;;;;;;67.70;37.50;;;;;;;;;;5065751;28;20269;-78
2022/12/23 03:04:59;;;;;;;74.30;38.07;;;;;;;;;;5068438;28;20296;-78
2022/12/23 03:07:43;;;;;;;60.67;35.20;;;;;;;;;;5066817;28;20733;-78
2022/12/23 03:10:27;;;;;;;68.97;36.53;;;;;;;;;;5061665;28;20184;-78
2022/12/23 03:12:53;;;;;;;68.53;37.70;;;;;;;;;;5069440;28;20276;-78
2022/12/23 03:15:52;;;;;;;72.30;36.83;;;;;;;;;;5052775;28;20181;-79
2022/12/23 03:18:27;;;;;;;81.10;39.00;;;;;;;;;;5066678;28;20224;-79
2022/12/23 03:21:03;;;;;;;73.87;37.10;;;;;;;;;;5066005;28;20272;-78
2022/12/23 03:23:32;;;;;;;77.83;38.77;;;;;;;;;;5068069;28;20180;-77
2022/12/23 03:25:58;;;;;;;76.83;38.00;;;;;;;;;;5060487;28;20178;-78
2022/12/23 03:28:42;;;;;;;74.03;37.53;;;;;;;;;;5045216;28;20221;-78
2022/12/23 03:31:10;;;;;;;63.23;36.07;;;;;;;;;;5067864;28;20186;-78
2022/12/23 03:33:39;;;;;;;74.40;39.63;;;;;;;;;;5065446;28;20182;-78
2022/12/23 03:36:23;;;;;;;64.77;36.37;;;;;;;;;;5068072;28;20286;-79
2022/12/23 03:38:49;;;;;;;63.43;35.03;;;;;;;;;;5066643;28;20220;-79
2022/12/23 03:41:23;;;;;;;62.77;35.63;;;;;;;;;;5070172;28;20249;-79
2022/12/23 03:43:52;;;;;;;61.40;34.97;;;;;;;;;;5075095;28;20704;-79
2022/12/23 03:46:26;;;;;;;60.50;35.47;;;;;;;;;;5063771;28;20332;-78
2022/12/23 03:48:53;;;;;;;60.27;35.73;;;;;;;;;;5069996;28;20179;-78
2022/12/23 03:51:22;;;;;;;60.67;34.90;;;;;;;;;;5067312;28;20251;-78
2022/12/23 03:53:51;;;;;;;57.53;34.97;;;;;;;;;;5066175;28;20189;-79
2022/12/23 03:56:24;;;;;;;64.33;36.07;;;;;;;;;;5057372;28;20174;-78
2022/12/23 03:58:57;;;;;;;62.40;35.27;;;;;;;;;;5065933;28;20223;-78
2022/12/23 04:01:23;;;;;;;59.67;35.53;;;;;;;;;;5068986;28;20181;-78
2022/12/23 04:03:52;;;;;;;60.13;35.47;;;;;;;;;;5065923;28;20205;-78
2022/12/23 04:06:19;;;;;;;61.50;36.27;;;;;;;;;;5066882;28;20181;-78
2022/12/23 04:08:46;;;;;;;54.33;33.63;;;;;;;;;;5070142;28;20264;-78
2022/12/23 04:11:12;;;;;;;48.63;31.53;;;;;;;;;;5070241;28;20912;-79
2022/12/23 04:13:38;;;;;;;57.13;33.97;;;;;;;;;;5069162;28;20185;-79
2022/12/23 04:16:04;;;;;;;52.17;32.67;;;;;;;;;;5061895;28;20180;-78
2022/12/23 04:18:31;;;;;;;56.87;33.17;;;;;;;;;;5058822;28;20186;-78
2022/12/23 04:20:57;;;;;;;52.33;32.33;;;;;;;;;;5072831;28;20187;-78
2022/12/23 04:23:23;;;;;;;57.40;32.57;;;;;;;;;;5068766;28;20185;-78
2022/12/23 04:25:49;;;;;;;54.27;32.80;;;;;;;;;;5072674;28;20185;-78
2022/12/23 04:28:15;;;;;;;47.20;32.10;;;;;;;;;;5071849;28;20605;-78
2022/12/23 04:30:41;;;;;;;48.20;31.20;;;;;;;;;;5067362;28;20239;-78
2022/12/23 04:33:07;;;;;;;45.20;30.57;;;;;;;;;;5068625;28;20182;-78
2022/12/23 04:35:33;;;;;;;55.20;32.77;;;;;;;;;;5060193;28;20789;-78
2022/12/23 04:37:59;;;;;;;55.33;32.37;;;;;;;;;;5057463;28;20201;-79
2022/12/23 04:40:25;;;;;;;52.50;32.30;;;;;;;;;;5056477;28;20186;-79
2022/12/23 04:42:51;;;;;;;52.97;32.03;;;;;;;;;;5060345;28;20238;-78
2022/12/23 04:45:17;;;;;;;49.23;32.17;;;;;;;;;;5084157;28;20193;-79
2022/12/23 04:47:43;;;;;;;50.90;30.30;;;;;;;;;;5069240;28;20292;-79
2022/12/23 04:50:13;;;;;;;46.33;30.40;;;;;;;;;;5058475;28;20522;-78
2022/12/23 04:52:39;;;;;;;50.90;31.67;;;;;;;;;;5063060;28;20185;-79
2022/12/23 04:55:05;;;;;;;46.67;30.77;;;;;;;;;;5059505;28;20204;-79
2022/12/23 04:57:31;;;;;;;45.53;29.10;;;;;;;;;;5054743;28;20198;-78
2022/12/23 04:59:57;;;;;;;51.80;30.23;;;;;;;;;;5070705;28;20173;-79
2022/12/23 05:02:23;;;;;;;52.90;31.63;;;;;;;;;;5056739;28;20669;-78
2022/12/23 05:04:49;;;;;;;45.93;30.30;;;;;;;;;;5059704;28;20188;-78
2022/12/23 05:07:15;;;;;;;45.10;30.13;;;;;;;;;;5062851;28;20685;-79
2022/12/23 05:09:41;;;;;;;41.83;28.50;;;;;;;;;;5070068;28;20572;-78
2022/12/23 05:12:07;;;;;;;42.63;29.20;;;;;;;;;;5069274;28;20174;-78
2022/12/23 05:14:33;;;;;;;46.10;29.87;;;;;;;;;;5059734;28;20185;-78
2022/12/23 05:16:59;;;;;;;48.03;29.50;;;;;;;;;;5068671;28;20567;-78
2022/12/23 05:19:25;;;;;;;44.40;29.77;;;;;;;;;;5066805;28;20360;-78
2022/12/23 05:21:51;;;;;;;42.23;29.77;;;;;;;;;;5063644;28;20181;-78
2022/12/23 05:24:17;;;;;;;54.70;32.87;;;;;;;;;;5069129;28;20654;-78
2022/12/23 05:26:46;;;;;;;46.80;29.73;;;;;;;;;;5068601;28;20205;-78
2022/12/23 05:29:12;;;;;;;46.13;31.00;;;;;;;;;;5071448;28;20183;-78
2022/12/23 05:31:38;;;;;;;50.63;32.00;;;;;;;;;;5071463;28;20227;-78
2022/12/23 05:34:04;;;;;;;49.43;31.13;;;;;;;;;;5068500;28;20279;-79
2022/12/23 05:36:30;;;;;;;49.97;31.97;;;;;;;;;;5071055;28;20229;-78
2022/12/23 05:38:56;;;;;;;53.27;32.33;;;;;;;;;;5060636;28;20174;-79
2022/12/23 05:41:22;;;;;;;52.10;30.77;;;;;;;;;;5059952;28;20277;-79
2022/12/23 05:43:48;;;;;;;50.07;32.30;;;;;;;;;;5066145;28;20176;-79
2022/12/23 05:46:14;;;;;;;50.17;31.00;;;;;;;;;;5077822;28;20190;-78
2022/12/23 05:48:40;;;;;;;54.87;34.17;;;;;;;;;;5054904;28;20197;-78
2022/12/23 05:51:06;;;;;;;51.67;33.60;;;;;;;;;;5068602;28;20178;-78
2022/12/23 05:53:32;;;;;;;50.30;34.07;;;;;;;;;;5059282;28;20260;-78
2022/12/23 05:55:58;;;;;;;50.93;32.90;;;;;;;;;;5066418;28;20185;-78
2022/12/23 05:58:24;;;;;;;51.00;34.63;;;;;;;;;;5068595;28;20189;-79
2022/12/23 06:00:50;;;;;;;54.23;41.50;;;;;;;;;;5052430;28;20413;-79
2022/12/23 06:03:16;;;;;;;52.73;35.33;;;;;;;;;;5083292;28;20406;-78
2022/12/23 06:05:42;;;;;;;53.30;32.27;;;;;;;;;;5057655;28;20612;-78
2022/12/23 06:08:09;;;;;;;56.50;35.60;;;;;;;;;;5064242;28;20225;-78
2022/12/23 06:10:35;;;;;;;61.37;33.13;;;;;;;;;;5058817;28;20272;-78
2022/12/23 06:13:01;;;;;;;49.97;32.93;;;;;;;;;;5056975;28;20260;-78
2022/12/23 06:15:27;;;;;;;55.10;33.00;;;;;;;;;;5068585;28;20649;-78
2022/12/23 06:17:53;;;;;;;58.30;33.43;;;;;;;;;;5066718;28;20544;-78
2022/12/23 06:20:19;;;;;;;55.10;31.17;;;;;;;;;;5067364;28;20181;-78
2022/12/23 06:22:45;;;;;;;64.73;35.40;;;;;;;;;;5067957;28;20181;-78
2022/12/23 06:25:11;;;;;;;57.17;34.50;;;;;;;;;;5065607;28;20623;-78
2022/12/23 06:27:37;;;;;;;55.47;33.20;;;;;;;;;;5067519;28;20580;-78
2022/12/23 06:30:03;;;;;;;49.13;32.83;;;;;;;;;;5065180;28;20174;-78
2022/12/23 06:32:29;;;;;;;50.20;31.73;;;;;;;;;;5066670;28;20193;-78
2022/12/23 06:34:55;;;;;;;54.77;34.10;;;;;;;;;;5061642;28;20185;-78
2022/12/23 06:37:21;;;;;;;57.23;34.30;;;;;;;;;;5055370;28;20220;-78
2022/12/23 06:39:47;;;;;;;52.43;32.30;;;;;;;;;;5064570;28;20190;-78
2022/12/23 06:42:12;;;;;;;49.67;32.70;;;;;;;;;;5067103;28;20629;-79
2022/12/23 06:44:38;;;;;;;56.87;33.07;;;;;;;;;;5062949;28;20181;-78
2022/12/23 06:47:04;;;;;;;79.03;37.20;;;;;;;;;;5063247;28;20303;-78
2022/12/23 06:49:30;;;;;;;51.90;31.23;;;;;;;;;;5066681;28;20200;-78
2022/12/23 06:51:56;;;;;;;59.33;35.00;;;;;;;;;;5067417;28;20680;-78
2022/12/23 06:54:22;;;;;;;57.03;32.33;;;;;;;;;;5059399;28;20178;-78
2022/12/23 06:56:48;;;;;;;42.17;28.93;;;;;;;;;;5065803;28;20173;-78
2022/12/23 06:59:14;;;;;;;65.10;34.40;;;;;;;;;;5065385;28;20346;-78
2022/12/23 07:01:40;;;;;;;54.37;32.23;;;;;;;;;;5067561;28;20192;-78
2022/12/23 07:04:06;;;;;;;41.93;29.73;;;;;;;;;;5067156;28;20193;-77
2022/12/23 07:06:32;;;;;;;53.70;32.97;;;;;;;;;;5049352;28;20654;-78
2022/12/23 07:08:58;;;;;;;45.50;30.50;;;;;;;;;;5063902;28;20174;-77
2022/12/23 07:11:24;;;;;;;49.87;30.97;;;;;;;;;;5065420;28;20876;-78
2022/12/23 07:13:50;;;;;;;58.40;33.10;;;;;;;;;;5066153;28;20276;-78
2022/12/23 07:16:16;;;;;;;47.27;32.77;;;;;;;;;;5066599;28;20176;-78
2022/12/23 07:18:42;;;;;;;55.60;34.20;;;;;;;;;;5067497;28;20193;-77
2022/12/23 07:21:08;;;;;;;46.30;31.90;;;;;;;;;;5063679;28;20177;-78
2022/12/23 07:23:34;;;;;;;47.77;31.87;;;;;;;;;;5066506;28;20212;-78
2022/12/23 07:26:00;;;;;;;43.47;31.33;;;;;;;;;;5063523;28;20250;-78
2022/12/23 07:28:26;;;;;;;50.00;31.60;;;;;;;;;;5067674;28;20212;-78
2022/12/23 07:30:52;;;;;;;40.63;29.40;;;;;;;;;;5067690;28;20181;-77
2022/12/23 07:33:18;;;;;;;44.30;28.50;;;;;;;;;;5058349;28;20226;-77
2022/12/23 07:35:44;;;;;;;63.60;35.70;;;;;;;;;;5066573;28;20221;-77
2022/12/23 07:38:10;;;;;;;46.40;31.90;;;;;;;;;;5065720;28;20203;-77
2022/12/23 07:40:36;;;;;;;43.13;30.17;;;;;;;;;;5065981;28;20193;-77
2022/12/23 07:43:02;;;;;;;47.10;32.50;;;;;;;;;;5065346;28;20181;-77
2022/12/23 07:45:29;;;;;;;40.83;30.67;;;;;;;;;;5058346;28;20201;-78
2022/12/23 07:47:55;;;;;;;42.90;32.47;;;;;;;;;;5065576;28;20238;-78
2022/12/23 07:50:22;;;;;;;41.97;31.37;;;;;;;;;;5062593;28;20188;-78
2022/12/23 07:52:48;;;;;;;37.63;29.70;;;;;;;;;;5062755;28;20235;-78
2022/12/23 07:55:14;;;;;;;44.40;31.03;;;;;;;;;;5079540;28;20192;-78
2022/12/23 07:57:40;;;;;;;43.20;31.53;;;;;;;;;;5064820;28;20181;-78
2022/12/23 08:00:07;;;;;;;41.43;31.50;;;;;;;;;;5064128;28;20186;-78
2022/12/23 08:02:33;;;;;;;40.63;31.23;;;;;;;;;;5064573;28;20833;-77
2022/12/23 08:04:59;;;;;;;43.57;31.30;;;;;;;;;;5064371;28;20193;-77
2022/12/23 08:07:25;;;;;;;39.50;29.90;;;;;;;;;;5065303;28;20205;-78
2022/12/23 08:09:51;;;;;;;41.57;31.00;;;;;;;;;;5052899;28;20626;-78
2022/12/23 08:12:17;;;;;;;38.57;29.37;;;;;;;;;;5067304;28;20176;-77
2022/12/23 08:14:44;;;;;;;40.43;29.43;;;;;;;;;;5051971;28;20186;-77
2022/12/23 08:17:10;;;;;;;40.47;28.47;;;;;;;;;;5056915;28;20220;-77
2022/12/23 08:19:36;;;;;;;49.00;31.53;;;;;;;;;;5058257;28;20182;-77
2022/12/23 08:22:02;;;;;;;38.90;28.70;;;;;;;;;;5068400;28;20189;-78
2022/12/23 08:24:28;;;;;;;42.93;28.97;;;;;;;;;;5066584;28;20207;-78
2022/12/23 08:26:54;;;;;;;40.70;29.37;;;;;;;;;;5069831;28;20231;-78
2022/12/23 08:29:20;;;;;;;41.93;30.23;;;;;;;;;;5069129;28;20205;-78
2022/12/23 08:31:46;;;;;;;41.13;30.40;;;;;;;;;;5068492;28;20634;-77
2022/12/23 08:34:13;;;;;;;41.23;31.13;;;;;;;;;;5068853;28;20177;-77
2022/12/23 08:36:39;;;;;;;39.70;29.53;;;;;;;;;;5048478;28;20231;-78
2022/12/23 08:39:07;;;;;;;48.17;32.03;;;;;;;;;;5060116;28;20182;-78
2022/12/23 08:41:35;;;;;;;41.80;30.90;;;;;;;;;;5063094;28;20199;-78
2022/12/23 08:44:01;;;;;;;44.27;30.57;;;;;;;;;;5066510;28;20181;-78
2022/12/23 08:46:27;;;;;;;39.67;29.67;;;;;;;;;;5063633;28;20182;-78
2022/12/23 08:48:54;;;;;;;44.73;30.00;;;;;;;;;;5065049;28;20264;-78
2022/12/23 08:51:20;;;;;;;42.60;29.57;;;;;;;;;;5064626;28;20318;-78
2022/12/23 08:53:47;;;;;;;41.43;30.63;;;;;;;;;;5056364;28;20192;-78
2022/12/23 08:56:14;;;;;;;41.10;29.83;;;;;;;;;;5061670;28;20184;-78
2022/12/23 08:58:42;;;;;;;44.70;31.50;;;;;;;;;;5072903;28;20197;-77
2022/12/23 09:01:09;;;;;;;41.43;29.17;;;;;;;;;;5093554;28;20184;-78
2022/12/23 09:03:35;;;;;;;38.03;28.90;;;;;;;;;;5071778;28;20181;-78
2022/12/23 09:06:09;;;;;;;39.03;28.23;;;;;;;;;;5075691;28;20628;-78
2022/12/23 09:08:35;;;;;;;42.43;29.37;;;;;;;;;;5072895;28;20232;-78
2022/12/23 09:11:01;;;;;;;41.63;30.07;;;;;;;;;;5069584;28;20196;-77
2022/12/23 09:13:28;;;;;;;41.90;29.77;;;;;;;;;;5060441;28;20185;-78
2022/12/23 09:15:53;;;;;;;42.13;30.47;;;;;;;;;;5066462;28;20704;-77
2022/12/23 09:18:20;;;;;;;42.77;30.17;;;;;;;;;;5060167;28;20268;-77
2022/12/23 09:20:46;;;;;;;37.80;28.70;;;;;;;;;;5074426;28;20192;-78
2022/12/23 09:23:11;;;;;;;40.87;29.43;;;;;;;;;;5075002;28;20180;-78
2022/12/23 09:25:37;;;;;;;41.00;29.00;;;;;;;;;;5071883;28;20631;-78
2022/12/23 09:28:04;;;;;;;37.90;29.00;;;;;;;;;;5057465;28;20215;-78
2022/12/23 09:30:30;;;;;;;38.10;28.33;;;;;;;;;;5065477;28;20634;-78
2022/12/23 09:32:56;;;;;;;42.13;30.10;;;;;;;;;;5079918;28;20188;-78
2022/12/23 09:35:22;;;;;;;42.93;28.80;;;;;;;;;;5058947;28;20558;-78
2022/12/23 09:37:48;;;;;;;43.63;29.77;;;;;;;;;;5058386;28;20253;-78
2022/12/23 09:40:14;;;;;;;42.17;29.67;;;;;;;;;;5068095;28;20662;-78
2022/12/23 09:42:50;;;;;;;40.27;29.20;;;;;;;;;;5069181;28;20549;-77
2022/12/23 09:45:35;;;;;;;38.93;27.77;;;;;;;;;;5068336;28;20172;-78
2022/12/23 09:48:01;;;;;;;43.10;30.67;;;;;;;;;;5074030;28;20300;-76
2022/12/23 09:50:32;;;;;;;37.53;28.73;;;;;;;;;;5070957;28;20181;-77
2022/12/23 09:53:01;;;;;;;40.70;29.40;;;;;;;;;;5069467;28;20566;-77
2022/12/23 09:55:31;;;;;;;40.77;29.00;;;;;;;;;;5066263;28;20182;-77
2022/12/23 09:58:02;;;;;;;42.47;29.47;;;;;;;;;;5075913;28;20720;-77
2022/12/23 10:00:31;;;;;;;43.30;29.53;;;;;;;;;;5074333;28;20177;-77
2022/12/23 10:02:57;;;;;;;45.57;29.33;;;;;;;;;;5091160;28;20660;-77
2022/12/23 10:05:23;;;;;;;42.23;29.27;;;;;;;;;;5060425;28;20173;-77
2022/12/23 10:07:51;;;;;;;48.03;30.63;;;;;;;;;;5066819;28;20676;-78
2022/12/23 10:10:19;;;;;;;44.83;30.73;;;;;;;;;;5057222;28;20543;-78
2022/12/23 10:12:48;;;;;;;48.77;32.07;;;;;;;;;;5066384;28;20251;-77
2022/12/23 10:15:23;;;;;;;45.77;30.60;;;;;;;;;;5089884;28;20180;-77
2022/12/23 10:17:51;;;;;;;48.13;31.50;;;;;;;;;;5068437;28;20215;-77
2022/12/23 10:20:22;;;;;;;44.87;30.07;;;;;;;;;;5065341;28;20184;-77
2022/12/23 10:22:48;;;;;;;42.10;29.67;;;;;;;;;;5069105;28;20186;-77
2022/12/23 10:25:22;;;;;;;43.37;29.47;;;;;;;;;;5073222;28;20196;-77
2022/12/23 10:27:48;;;;;;;42.23;28.80;;;;;;;;;;5072816;28;20232;-77
2022/12/23 10:30:17;;;;;;;42.47;30.27;;;;;;;;;;5076440;28;20176;-76
2022/12/23 10:32:49;;;;;;;48.77;31.93;;;;;;;;;;5065970;28;20197;-78
2022/12/23 10:35:21;;;;;;;46.57;30.40;;;;;;;;;;5069319;28;20545;-78
2022/12/23 10:37:53;;;;;;;42.23;29.40;;;;;;;;;;5058831;28;20202;-78
2022/12/23 10:40:23;;;;;;;46.10;30.47;;;;;;;;;;5081890;28;20645;-78
2022/12/23 10:42:49;;;;;;;43.90;29.80;;;;;;;;;;5062545;28;20182;-78
2022/12/23 10:45:15;;;;;;;53.40;31.70;;;;;;;;;;5072509;28;20173;-78
2022/12/23 10:47:53;;;;;;;45.50;31.17;;;;;;;;;;5064818;28;20304;-77
2022/12/23 10:50:22;;;;;;;42.17;29.63;;;;;;;;;;5064876;28;20176;-78
2022/12/23 10:52:48;;;;;;;45.97;30.83;;;;;;;;;;5061164;28;20208;-77
2022/12/23 10:55:19;;;;;;;39.63;29.20;;;;;;;;;;5063480;28;20185;-78
2022/12/23 10:57:45;;;;;;;47.53;31.63;;;;;;;;;;5066825;28;20181;-78
2022/12/23 11:00:16;;;;;;;42.63;30.20;;;;;;;;;;5070421;28;20252;-78
2022/12/23 11:02:49;;;;;;;41.73;29.73;;;;;;;;;;5082518;28;20184;-78
2022/12/23 11:05:16;;;;;;;45.27;30.83;;;;;;;;;;5066535;28;20233;-78
2022/12/23 11:07:43;;;;;;;44.27;31.43;;;;;;;;;;5069120;28;20215;-78
2022/12/23 11:10:17;;;;;;;43.30;31.17;;;;;;;;;;5069183;28;20180;-78
2022/12/23 11:12:45;;;;;;;48.27;32.77;;;;;;;;;;5066962;28;20177;-78
2022/12/23 11:15:26;;;;;;;46.50;33.30;;;;;;;;;;5075164;28;20175;-79
2022/12/23 11:17:59;;;;;;;39.77;29.23;;;;;;;;;;5071843;28;20187;-79
2022/12/23 11:20:25;;;;;;;42.70;31.90;;;;;;;;;;5070502;28;20188;-78
2022/12/23 11:22:52;;;;;;;58.83;41.20;;;;;;;;;;5070091;28;20185;-78
2022/12/23 11:25:39;;;;;;;50.23;35.23;;;;;;;;;;5072830;28;20242;-78
2022/12/23 11:28:11;;;;;;;48.77;33.43;;;;;;;;;;5072222;28;20961;-79
2022/12/23 11:30:38;;;;;;;50.03;35.00;;;;;;;;;;5074050;28;20177;-78
2022/12/23 11:33:05;;;;;;;51.67;33.73;;;;;;;;;;5074522;28;20192;-77
2022/12/23 11:35:32;;;;;;;46.40;32.20;;;;;;;;;;5072147;28;20294;-78
2022/12/23 11:37:58;;;;;;;45.30;32.53;;;;;;;;;;5070087;28;20184;-80
2022/12/23 11:40:33;;;;;;;47.57;34.03;;;;;;;;;;5064716;28;20653;-78
2022/12/23 11:43:01;;;;;;;46.33;31.07;;;;;;;;;;5072706;28;20192;-78
2022/12/23 11:45:29;;;;;;;46.40;33.47;;;;;;;;;;5067893;28;20251;-78
2022/12/23 11:47:55;;;;;;;47.20;33.27;;;;;;;;;;5063421;28;20205;-78
2022/12/23 11:50:28;;;;;;;50.20;35.00;;;;;;;;;;5059391;28;20181;-78
2022/12/23 11:53:00;;;;;;;51.07;34.60;;;;;;;;;;5063926;28;20185;-78
2022/12/23 11:55:28;;;;;;;51.77;34.20;;;;;;;;;;5064560;28;20683;-78
2022/12/23 11:57:55;;;;;;;50.23;34.60;;;;;;;;;;5065621;28;20410;-79
2022/12/23 12:00:21;;;;;;;72.70;45.03;;;;;;;;;;5065352;28;20180;-78
2022/12/23 12:02:55;;;;;;;87.03;54.27;;;;;;;;;;5063377;28;20185;-78
2022/12/23 12:05:28;;;;;;;66.77;46.10;;;;;;;;;;5060880;28;20188;-78
2022/12/23 12:07:57;;;;;;;59.37;41.70;;;;;;;;;;5062825;28;20223;-78
2022/12/23 12:10:31;;;;;;;69.80;47.23;;;;;;;;;;5062940;28;20292;-79
2022/12/23 12:13:01;;;;;;;51.83;37.13;;;;;;;;;;5051990;28;20182;-80
2022/12/23 12:15:27;;;;;;;54.77;37.83;;;;;;;;;;5066056;28;20177;-79
2022/12/23 12:17:54;;;;;;;59.63;40.00;;;;;;;;;;5059806;28;20661;-80
2022/12/23 12:20:29;;;;;;;60.70;42.50;;;;;;;;;;5059358;28;20189;-79
2022/12/23 12:23:22;;;;;;;58.10;40.37;;;;;;;;;;5059515;28;20204;-79
2022/12/23 12:25:48;;;;;;;50.77;35.70;;;;;;;;;;5055425;28;20203;-79
2022/12/23 12:28:20;;;;;;;48.10;35.40;;;;;;;;;;5066134;28;20212;-79
2022/12/23 12:30:49;;;;;;;48.47;37.07;;;;;;;;;;5065019;28;20169;-79
2022/12/23 12:33:14;;;;;;;50.33;35.80;;;;;;;;;;5055322;28;20223;-79
2022/12/23 12:35:50;;;;;;;49.80;35.47;;;;;;;;;;5063599;28;20245;-78
2022/12/23 12:38:37;;;;;;;58.80;39.20;;;;;;;;;;5061070;28;20189;-79
2022/12/23 12:41:11;;;;;;;52.60;37.97;;;;;;;;;;5058765;28;20527;-79
2022/12/23 12:43:39;;;;;;;53.63;35.47;;;;;;;;;;5058143;28;20654;-79
2022/12/23 12:46:05;;;;;;;47.87;34.23;;;;;;;;;;5069844;28;20181;-79
2022/12/23 12:48:31;;;;;;;46.60;33.10;;;;;;;;;;5073467;28;20544;-79
2022/12/23 12:51:24;;;;;;;48.97;34.37;;;;;;;;;;5066306;28;20210;-79
2022/12/23 12:53:59;;;;;;;49.53;34.67;;;;;;;;;;5054044;28;20194;-78
2022/12/23 12:56:54;;;;;;;54.97;36.77;;;;;;;;;;5065794;28;20194;-79
2022/12/23 12:59:24;;;;;;;51.10;34.10;;;;;;;;;;5063004;28;20216;-79
2022/12/23 13:01:57;;;;;;;48.07;33.40;;;;;;;;;;5067830;28;20209;-78
2022/12/23 13:04:35;;;;;;;47.93;34.17;;;;;;;;;;5064773;28;20623;-79
2022/12/23 13:07:13;;;;;;;51.77;34.00;;;;;;;;;;5067078;28;20559;-78
2022/12/23 13:09:42;;;;;;;51.97;34.40;;;;;;;;;;5068138;28;20272;-78
2022/12/23 13:12:16;;;;;;;45.27;32.27;;;;;;;;;;5061691;28;20189;-78
2022/12/23 13:15:01;;;;;;;48.73;33.23;;;;;;;;;;5060186;28;20192;-78
2022/12/23 13:17:30;;;;;;;43.83;32.30;;;;;;;;;;5053824;28;20646;-78
2022/12/23 13:19:56;;;;;;;45.90;33.50;;;;;;;;;;5059938;28;20276;-79
2022/12/23 13:22:32;;;;;;;46.83;32.53;;;;;;;;;;5069494;28;20202;-78
2022/12/23 13:25:10;;;;;;;42.47;31.10;;;;;;;;;;5067689;28;20512;-78
2022/12/23 13:27:54;;;;;;;46.90;32.40;;;;;;;;;;5058565;28;20283;-79
2022/12/23 13:30:23;;;;;;;50.93;34.83;;;;;;;;;;5071088;28;20599;-78
2022/12/23 13:32:59;;;;;;;50.40;33.67;;;;;;;;;;5070572;28;20192;-79
2022/12/23 13:35:32;;;;;;;45.67;32.37;;;;;;;;;;5071372;28;20661;-78
2022/12/23 13:37:58;;;;;;;46.30;33.40;;;;;;;;;;5071328;28;20188;-78
2022/12/23 13:40:33;;;;;;;45.10;33.37;;;;;;;;;;5055560;28;20203;-77
2022/12/23 13:43:02;;;;;;;46.87;32.83;;;;;;;;;;5069577;28;20200;-78
2022/12/23 13:45:32;;;;;;;50.67;33.93;;;;;;;;;;5061236;28;20174;-78
2022/12/23 13:48:18;;;;;;;49.77;34.23;;;;;;;;;;5068123;28;20232;-78
2022/12/23 13:50:50;;;;;;;55.30;35.33;;;;;;;;;;5070163;28;20262;-79
2022/12/23 13:53:25;;;;;;;55.30;34.83;;;;;;;;;;5069480;28;20238;-78
2022/12/23 13:55:51;;;;;;;51.23;35.23;;;;;;;;;;5071308;28;20184;-78
2022/12/23 13:58:19;;;;;;;50.03;34.53;;;;;;;;;;5070217;28;20196;-78
2022/12/23 14:00:45;;;;;;;58.00;35.97;;;;;;;;;;5070915;28;20261;-78
2022/12/23 14:03:11;;;;;;;63.23;36.67;;;;;;;;;;5071765;28;20189;-79
2022/12/23 14:05:45;;;;;;;55.37;36.00;;;;;;;;;;5070877;28;20616;-78
2022/12/23 14:08:23;;;;;;;51.80;33.37;;;;;;;;;;5067688;28;20213;-79
2022/12/23 14:11:08;;;;;;;54.13;35.87;;;;;;;;;;5053223;28;20185;-79
2022/12/23 14:13:59;;;;;;;53.50;36.07;;;;;;;;;;5053051;28;20558;-80
2022/12/23 14:16:28;;;;;;;58.20;37.07;;;;;;;;;;5052386;28;20221;-79
2022/12/23 14:19:00;;;;;;;60.10;40.17;;;;;;;;;;5072509;28;20182;-79
2022/12/23 14:21:45;;;;;;;61.30;38.90;;;;;;;;;;5070166;28;20181;-79
2022/12/23 14:24:20;;;;;;;53.40;36.20;;;;;;;;;;5069449;28;20192;-78
2022/12/23 14:26:46;;;;;;;55.17;37.13;;;;;;;;;;5061241;28;20189;-79
2022/12/23 14:29:31;;;;;;;57.97;38.70;;;;;;;;;;5057812;28;20184;-79
2022/12/23 14:31:58;;;;;;;54.13;36.33;;;;;;;;;;5062360;28;20188;-78
2022/12/23 14:34:23;;;;;;;56.27;37.70;;;;;;;;;;5069358;28;20567;-78
2022/12/23 14:37:08;;;;;;;56.67;38.70;;;;;;;;;;5051859;28;20229;-78
2022/12/23 14:39:34;;;;;;;54.07;35.60;;;;;;;;;;5067255;28;20181;-78
2022/12/23 14:42:00;;;;;;;54.83;35.90;;;;;;;;;;5066483;28;20660;-78
2022/12/23 14:44:36;;;;;;;52.23;35.70;;;;;;;;;;5071768;28;20185;-78
2022/12/23 14:47:03;;;;;;;55.00;36.20;;;;;;;;;;5068181;28;20291;-78
2022/12/23 14:49:34;;;;;;;44.03;31.83;;;;;;;;;;5068070;28;20181;-78
2022/12/23 14:52:19;;;;;;;52.30;36.00;;;;;;;;;;5063644;28;20174;-78
2022/12/23 14:54:45;;;;;;;51.47;36.37;;;;;;;;;;5068084;28;20226;-78